Time;durP1;ratioP1;P1;durP2;ratioP2;P2;SDS_P1;SDS_P2;PMS_P1;PMS_P2;Temp;Humidity;BMP_temperature;BMP_pressure;BME280_temperature;BME280_humidity;BME280_pressure;Samples;Min_cycle;Max_cycle;Signal;HPM_P1;HPM_P2
2023/10/09 00:02:58;;;;;;;7.68;4.22;;;;;;;-146.35;100.00;61140.38;5024280;28;20044;-42
2023/10/09 00:05:37;;;;;;;6.57;3.70;;;;;;;-146.35;100.00;61140.38;5023578;28;20082;-43
2023/10/09 00:08:03;;;;;;;7.28;3.60;;;;;;;-146.35;100.00;61140.38;5024075;28;20041;-43
2023/10/09 00:10:35;;;;;;;6.25;3.60;;;;;;;-146.35;100.00;61140.38;5023869;28;20040;-42
2023/10/09 00:13:00;;;;;;;6.45;3.45;;;;;;;-146.35;100.00;61140.38;5023983;28;20503;-45
2023/10/09 00:15:27;;;;;;;5.30;3.40;;;;;;;-146.35;100.00;61140.38;5024717;28;20033;-43
2023/10/09 00:17:55;;;;;;;6.45;3.55;;;;;;;-146.35;100.00;61140.38;5023875;28;20048;-46
2023/10/09 00:20:24;;;;;;;6.03;3.28;;;;;;;-146.35;100.00;61140.38;5024107;28;20032;-45
2023/10/09 00:22:51;;;;;;;5.45;3.28;;;;;;;-146.35;100.00;61140.38;5023415;28;20441;-45
2023/10/09 00:25:30;;;;;;;5.68;3.55;;;;;;;-146.35;100.00;61140.38;5024758;28;20708;-46
2023/10/09 00:27:55;;;;;;;5.78;3.30;;;;;;;-146.35;100.00;61140.38;5024269;28;20032;-45
2023/10/09 00:30:29;;;;;;;7.20;3.88;;;;;;;-146.35;100.00;61140.38;5023174;28;20045;-45
2023/10/09 00:40:47;;;;;;;5.72;3.33;;;;;;;-146.35;100.00;61140.38;5023943;28;21077;-42
2023/10/09 00:43:19;;;;;;;6.03;3.40;;;;;;;-146.35;100.00;61140.38;5023213;28;20481;-45
2023/10/09 00:45:46;;;;;;;6.78;3.33;;;;;;;-146.35;100.00;61140.38;5023608;28;20032;-46
2023/10/09 00:48:23;;;;;;;4.82;3.08;;;;;;;-146.35;100.00;61140.38;5023512;28;20041;-45
2023/10/09 00:50:52;;;;;;;6.40;3.33;;;;;;;-146.35;100.00;61140.38;5023803;28;20443;-43
2023/10/09 00:53:30;;;;;;;5.95;3.22;;;;;;;-146.35;100.00;61140.38;5021923;28;20028;-44
2023/10/09 00:55:57;;;;;;;5.47;3.30;;;;;;;-146.35;100.00;61140.38;5013742;28;20821;-45
2023/10/09 00:58:30;;;;;;;7.25;3.33;;;;;;;-146.35;100.00;61140.38;5021542;28;20138;-45
2023/10/09 01:00:59;;;;;;;5.30;3.08;;;;;;;-146.35;100.00;61140.38;5024204;28;20028;-45
2023/10/09 01:03:25;;;;;;;5.28;3.30;;;;;;;-146.35;100.00;61140.38;5023812;28;20039;-45
2023/10/09 01:06:14;;;;;;;7.22;3.25;;;;;;;-146.35;100.00;61140.38;5023169;28;20625;-44
2023/10/09 01:11:18;;;;;;;5.13;3.33;;;;;;;-146.35;100.00;61140.38;5056188;28;20493;-45
2023/10/09 01:16:16;;;;;;;5.85;3.13;;;;;;;-146.35;100.00;61140.38;5023487;28;20452;-47
2023/10/09 01:18:49;;;;;;;5.45;3.10;;;;;;;-146.35;100.00;61140.38;5022931;28;20511;-42
2023/10/09 01:21:23;;;;;;;4.43;2.83;;;;;;;-146.35;100.00;61140.38;5023627;28;20473;-42
2023/10/09 01:24:04;;;;;;;6.15;3.30;;;;;;;-146.35;100.00;61140.38;5022179;28;20037;-44
2023/10/09 01:26:46;;;;;;;4.45;2.85;;;;;;;-146.35;100.00;61140.38;5040320;28;20040;-43
2023/10/09 01:29:17;;;;;;;5.18;2.95;;;;;;;-146.35;100.00;61140.38;5022753;28;20363;-43
2023/10/09 01:31:56;;;;;;;4.45;2.88;;;;;;;-146.35;100.00;61140.38;5022947;28;20053;-43
2023/10/09 01:37:39;;;;;;;5.70;3.28;;;;;;;-146.35;100.00;61140.38;5023065;28;20440;-45
2023/10/09 01:42:48;;;;;;;5.97;3.22;;;;;;;-146.35;100.00;61140.38;5022982;28;20127;-46
2023/10/09 01:45:27;;;;;;;5.28;3.15;;;;;;;-146.35;100.00;61140.38;5023469;28;20291;-46
2023/10/09 01:47:55;;;;;;;8.10;3.00;;;;;;;-146.35;100.00;61140.38;5022066;28;20120;-44
2023/10/09 01:50:30;;;;;;;5.28;2.80;;;;;;;-146.35;100.00;61140.38;5023023;28;20125;-42
2023/10/09 01:52:56;;;;;;;4.78;2.80;;;;;;;-146.35;100.00;61140.38;5023221;28;20046;-44
2023/10/09 01:55:28;;;;;;;5.35;2.90;;;;;;;-146.35;100.00;61140.38;5022307;28;20601;-45
2023/10/09 01:57:53;;;;;;;5.15;3.17;;;;;;;-146.35;100.00;61140.38;5021788;28;20456;-42
2023/10/09 02:00:23;;;;;;;4.53;2.85;;;;;;;-146.35;100.00;61140.38;5019727;28;20025;-42
2023/10/09 02:02:50;;;;;;;5.53;3.22;;;;;;;-146.35;100.00;61140.38;5022155;28;20035;-42
2023/10/09 02:05:25;;;;;;;4.25;2.92;;;;;;;-146.35;100.00;61140.38;5021407;28;20628;-42
2023/10/09 02:07:51;;;;;;;4.90;2.88;;;;;;;-146.35;100.00;61140.38;5022108;28;20036;-45
2023/10/09 02:12:59;;;;;;;5.57;2.95;;;;;;;-146.35;100.00;61140.38;5022363;28;20068;-47
2023/10/09 02:21:39;;;;;;;4.95;2.78;;;;;;;-146.35;100.00;61140.38;5026665;28;20098;-45
2023/10/09 02:23:49;;;;;;;4.90;2.92;;;;;;;-146.35;100.00;61140.38;5022009;28;20485;-46
2023/10/09 02:26:25;;;;;;;4.40;2.80;;;;;;;-146.35;100.00;61140.38;5026031;28;20032;-46
2023/10/09 02:29:04;;;;;;;4.85;3.05;;;;;;;-146.35;100.00;61140.38;5023900;28;20068;-47
2023/10/09 02:31:51;;;;;;;5.25;2.97;;;;;;;-146.35;100.00;61140.38;5026296;28;20629;-46
2023/10/09 02:34:25;;;;;;;5.28;2.88;;;;;;;-146.35;100.00;61140.38;5026161;28;20647;-46
2023/10/09 02:36:57;;;;;;;4.43;2.72;;;;;;;-146.35;100.00;61140.38;5025983;28;20464;-48
2023/10/09 02:39:25;;;;;;;6.03;2.90;;;;;;;-146.35;100.00;61140.38;5019883;28;20036;-43
2023/10/09 02:41:55;;;;;;;4.90;2.60;;;;;;;-146.35;100.00;61140.38;5024644;28;20043;-47
2023/10/09 02:44:24;;;;;;;4.60;3.10;;;;;;;-146.35;100.00;61140.38;5040160;28;20043;-49
2023/10/09 02:46:50;;;;;;;5.28;3.03;;;;;;;-146.35;100.00;61140.38;5026103;28;20037;-44
2023/10/09 02:49:16;;;;;;;5.22;3.30;;;;;;;-146.35;100.00;61140.38;5025191;28;20044;-48
2023/10/09 02:51:41;;;;;;;6.68;3.10;;;;;;;-146.35;100.00;61140.38;5025999;28;20033;-42
2023/10/09 02:54:17;;;;;;;5.78;3.33;;;;;;;-146.35;100.00;61140.38;5026328;28;20052;-42
2023/10/09 02:56:43;;;;;;;5.88;3.25;;;;;;;-146.35;100.00;61140.38;5020793;28;20087;-46
2023/10/09 02:59:09;;;;;;;6.60;3.30;;;;;;;-146.35;100.00;61140.38;5024868;28;20079;-46
2023/10/09 03:01:39;;;;;;;5.68;3.17;;;;;;;-146.35;100.00;61140.38;5023327;28;21510;-45
2023/10/09 03:04:05;;;;;;;7.73;3.60;;;;;;;-146.35;100.00;61140.38;5025474;28;20036;-47
2023/10/09 03:06:40;;;;;;;6.47;3.60;;;;;;;-146.35;100.00;61140.38;5025725;28;20397;-46
2023/10/09 03:09:16;;;;;;;5.57;3.28;;;;;;;-146.35;100.00;61140.38;5039597;28;20033;-44
2023/10/09 03:11:53;;;;;;;5.88;3.17;;;;;;;-146.35;100.00;61140.38;5025715;28;20073;-43
2023/10/09 03:14:26;;;;;;;5.35;3.03;;;;;;;-146.35;100.00;61140.38;5025709;28;20076;-43
2023/10/09 03:16:52;;;;;;;4.25;2.65;;;;;;;-146.35;100.00;61140.38;5025511;28;20024;-43
2023/10/09 03:19:17;;;;;;;5.32;2.80;;;;;;;-146.35;100.00;61140.38;5009274;28;20583;-41
2023/10/09 03:21:43;;;;;;;5.15;3.17;;;;;;;-146.35;100.00;61140.38;5025030;28;20525;-43
2023/10/09 03:24:11;;;;;;;5.95;3.25;;;;;;;-146.35;100.00;61140.38;5039240;28;20075;-41
2023/10/09 03:26:36;;;;;;;5.32;3.35;;;;;;;-146.35;100.00;61140.38;5024762;28;20032;-43
2023/10/09 03:29:06;;;;;;;7.22;3.33;;;;;;;-146.35;100.00;61140.38;5023469;28;20078;-42
2023/10/09 03:31:34;;;;;;;6.03;3.20;;;;;;;-146.35;100.00;61140.38;5022805;28;20048;-46
2023/10/09 03:34:00;;;;;;;6.30;3.42;;;;;;;-146.35;100.00;61140.38;5051794;28;20116;-43
2023/10/09 03:36:29;;;;;;;6.72;3.50;;;;;;;-146.35;100.00;61140.38;5024201;28;20066;-46
2023/10/09 03:38:57;;;;;;;5.25;3.03;;;;;;;-146.35;100.00;61140.38;5025353;28;20555;-44
2023/10/09 03:41:26;;;;;;;6.20;3.45;;;;;;;-146.35;100.00;61140.38;5024929;28;20025;-45
2023/10/09 03:43:52;;;;;;;5.40;3.00;;;;;;;-146.35;100.00;61140.38;5024814;28;20078;-47
2023/10/09 03:46:21;;;;;;;5.78;3.00;;;;;;;-146.35;100.00;61140.38;5023237;28;20067;-42
2023/10/09 03:48:48;;;;;;;6.20;3.20;;;;;;;-146.35;100.00;61140.38;5023666;28;20538;-44
2023/10/09 03:51:21;;;;;;;5.43;2.97;;;;;;;-146.35;100.00;61140.38;5024268;28;20045;-43
2023/10/09 03:53:52;;;;;;;6.40;3.55;;;;;;;-146.35;100.00;61140.38;5022286;28;20127;-46
2023/10/09 03:56:21;;;;;;;6.00;3.10;;;;;;;-146.35;100.00;61140.38;5023373;28;20036;-45
2023/10/09 03:58:50;;;;;;;6.93;3.33;;;;;;;-146.35;100.00;61140.38;5024444;28;20037;-43
2023/10/09 04:01:27;;;;;;;6.63;3.10;;;;;;;-146.35;100.00;61140.38;5022686;28;21347;-42
2023/10/09 04:03:59;;;;;;;7.00;3.50;;;;;;;-146.35;100.00;61140.38;5023921;28;20028;-46
2023/10/09 04:06:32;;;;;;;6.30;3.15;;;;;;;-146.35;100.00;61140.38;5024382;28;20443;-44
2023/10/09 04:11:46;;;;;;;6.53;3.10;;;;;;;-146.35;100.00;61140.38;5024327;28;20519;-44
2023/10/09 04:14:26;;;;;;;6.70;3.30;;;;;;;-146.35;100.00;61140.38;5023859;28;20032;-45
2023/10/09 04:16:52;;;;;;;6.47;3.50;;;;;;;-146.35;100.00;61140.38;5024869;28;20079;-44
2023/10/09 04:19:22;;;;;;;5.85;3.40;;;;;;;-146.35;100.00;61140.38;5024642;28;20028;-44
2023/10/09 04:21:48;;;;;;;4.80;3.20;;;;;;;-146.35;100.00;61140.38;5020806;28;20048;-43
2023/10/09 04:26:44;;;;;;;6.35;3.28;;;;;;;-146.35;100.00;61140.38;5024103;28;20067;-47
2023/10/09 04:29:26;;;;;;;5.95;3.33;;;;;;;-146.35;100.00;61140.38;5023972;28;20155;-43
2023/10/09 04:32:00;;;;;;;6.75;3.35;;;;;;;-146.35;100.00;61140.38;5022531;28;20041;-42
2023/10/09 04:34:48;;;;;;;4.78;3.00;;;;;;;-146.35;100.00;61140.38;5023714;28;20823;-45
2023/10/09 04:39:46;;;;;;;5.18;3.20;;;;;;;-146.35;100.00;61140.38;5023344;28;20169;-44
2023/10/09 04:42:36;;;;;;;5.85;3.28;;;;;;;-146.35;100.00;61140.38;5023446;28;20075;-43
2023/10/09 04:48:32;;;;;;;4.80;2.95;;;;;;;-146.35;100.00;61140.38;5022822;28;20044;-42
2023/10/09 04:52:55;;;;;;;6.53;3.65;;;;;;;-146.35;100.00;61140.38;5022752;28;20452;-43
2023/10/09 04:55:24;;;;;;;6.97;3.28;;;;;;;-146.35;100.00;61140.38;5022083;28;20028;-45
2023/10/09 04:58:09;;;;;;;5.35;3.22;;;;;;;-146.35;100.00;61140.38;5022378;28;20447;-41
2023/10/09 05:00:46;;;;;;;5.20;3.40;;;;;;;-146.35;100.00;61140.38;5022760;28;21227;-44
2023/10/09 05:03:24;;;;;;;5.38;3.28;;;;;;;-146.35;100.00;61140.38;5021732;28;20032;-44
2023/10/09 05:05:58;;;;;;;6.30;3.22;;;;;;;-146.35;100.00;61140.38;5022461;28;20749;-44
2023/10/09 05:16:19;;;;;;;5.72;3.20;;;;;;;-146.35;100.00;61140.38;5053660;28;20040;-44
2023/10/09 05:18:59;;;;;;;5.90;3.25;;;;;;;-146.35;100.00;61140.38;5023010;28;20082;-42
2023/10/09 05:35:04;;;;;;;5.65;3.28;;;;;;;-146.35;100.00;61140.38;5022787;28;20037;-42
2023/10/09 05:37:32;;;;;;;7.18;3.20;;;;;;;-146.35;100.00;61140.38;5022723;28;20041;-43
2023/10/09 05:47:57;;;;;;;6.70;3.40;;;;;;;-146.35;100.00;61140.38;5010156;28;20143;-43
2023/10/09 06:19:25;;;;;;;5.80;3.35;;;;;;;-146.35;100.00;61140.38;5021731;28;20479;-43
2023/10/09 06:24:41;;;;;;;6.50;3.50;;;;;;;-146.35;100.00;61140.38;5022477;28;20698;-42
2023/10/09 06:29:38;;;;;;;6.05;3.45;;;;;;;-146.35;100.00;61140.38;5021527;28;20040;-44
2023/10/09 06:35:14;;;;;;;6.10;3.40;;;;;;;-146.35;100.00;61140.38;5021476;28;20056;-45
2023/10/09 06:38:10;;;;;;;6.07;3.50;;;;;;;-146.35;100.00;61140.38;5021026;28;20041;-47
2023/10/09 06:43:08;;;;;;;5.47;3.50;;;;;;;-146.35;100.00;61140.38;5021697;28;20127;-45
2023/10/09 06:45:54;;;;;;;7.13;3.85;;;;;;;-146.35;100.00;61140.38;5022315;28;20041;-46
2023/10/09 06:53:58;;;;;;;6.13;3.45;;;;;;;-146.35;100.00;61140.38;5021506;28;20612;-46
2023/10/09 06:58:58;;;;;;;;;;;;;;;-146.35;100.00;61140.38;5022543;28;20073;-45
2023/10/09 07:01:46;;;;;;;5.88;3.25;;;;;;;-146.35;100.00;61140.38;5020543;28;20366;-44
2023/10/09 07:04:19;;;;;;;6.15;3.58;;;;;;;-146.35;100.00;61140.38;5049223;28;20033;-42
2023/10/09 07:06:48;;;;;;;5.97;3.45;;;;;;;-146.35;100.00;61140.38;5025104;28;20043;-46
2023/10/09 07:17:00;;;;;;;7.78;3.65;;;;;;;-146.35;100.00;61140.38;5019444;28;20036;-43
2023/10/09 07:22:18;;;;;;;6.97;3.53;;;;;;;-146.35;100.00;61140.38;5024635;28;20349;-43
2023/10/09 07:24:43;;;;;;;7.72;3.83;;;;;;;-146.35;100.00;61140.38;5024971;28;20127;-45
2023/10/09 07:27:15;;;;;;;8.07;3.63;;;;;;;-146.35;100.00;61140.38;5024110;28;20634;-47
2023/10/09 07:29:47;;;;;;;9.50;4.38;;;;;;;-146.35;100.00;61140.38;5024613;28;20608;-45
2023/10/09 07:32:20;;;;;;;6.80;3.67;;;;;;;-146.35;100.00;61140.38;5023363;28;20172;-44
2023/10/09 07:34:52;;;;;;;7.82;4.00;;;;;;;-146.35;100.00;61140.38;5024558;28;20131;-42
2023/10/09 07:37:22;;;;;;;7.43;3.90;;;;;;;-146.35;100.00;61140.38;5025016;28;20389;-45
2023/10/09 07:39:57;;;;;;;8.20;4.03;;;;;;;-146.35;100.00;61140.38;5024705;28;20043;-42
2023/10/09 07:42:33;;;;;;;7.45;3.70;;;;;;;-146.35;100.00;61140.38;5024853;28;20064;-43
2023/10/09 07:45:11;;;;;;;9.05;4.47;;;;;;;-146.35;100.00;61140.38;5025245;28;20102;-43
2023/10/09 07:50:48;;;;;;;8.93;4.07;;;;;;;-146.35;100.00;61140.38;4971568;28;20034;-46
2023/10/09 07:53:25;;;;;;;8.20;3.97;;;;;;;-146.35;100.00;61140.38;5016110;28;20302;-44
2023/10/09 07:55:55;;;;;;;9.07;4.13;;;;;;;-146.35;100.00;61140.38;5024899;28;20206;-47
2023/10/09 07:58:25;;;;;;;7.22;4.00;;;;;;;-146.35;100.00;61140.38;5022803;28;20039;-44
2023/10/09 08:01:07;;;;;;;8.15;4.28;;;;;;;-146.35;100.00;61140.38;5024777;28;20021;-46
2023/10/09 08:03:36;;;;;;;7.57;3.80;;;;;;;-146.35;100.00;61140.38;5024329;28;20131;-43
2023/10/09 08:17:15;;;;;;;8.20;3.95;;;;;;;-146.35;100.00;61140.38;5025112;28;20512;-47
2023/10/09 08:19:54;;;;;;;6.72;3.70;;;;;;;-146.35;100.00;61140.38;5024402;28;20639;-46
2023/10/09 08:24:57;;;;;;;7.90;4.00;;;;;;;-146.35;100.00;61140.38;5023380;28;20036;-43
2023/10/09 08:32:40;;;;;;;7.55;4.03;;;;;;;-146.35;100.00;61140.38;5023504;28;20374;-42
2023/10/09 08:37:50;;;;;;;6.70;4.10;;;;;;;-146.35;100.00;61140.38;5024171;28;20178;-43
2023/10/09 08:40:20;;;;;;;8.15;3.88;;;;;;;-146.35;100.00;61140.38;5023742;28;20032;-41
2023/10/09 08:42:53;;;;;;;7.40;3.83;;;;;;;-146.35;100.00;61140.38;5023175;28;20037;-42
2023/10/09 08:45:26;;;;;;;8.35;3.90;;;;;;;-146.35;100.00;61140.38;5023405;28;20045;-43
2023/10/09 08:47:54;;;;;;;14.27;4.15;;;;;;;-146.35;100.00;61140.38;5025527;28;20470;-44
2023/10/09 08:50:27;;;;;;;7.97;3.95;;;;;;;-146.35;100.00;61140.38;5025259;28;20033;-48
2023/10/09 08:52:55;;;;;;;11.90;4.13;;;;;;;-146.35;100.00;61140.38;5025859;28;20068;-47
2023/10/09 08:55:20;;;;;;;8.27;4.00;;;;;;;-146.35;100.00;61140.38;5024985;28;20063;-44
2023/10/09 08:57:46;;;;;;;10.95;4.35;;;;;;;-146.35;100.00;61140.38;5024740;28;20157;-48
2023/10/09 09:00:23;;;;;;;10.70;3.80;;;;;;;-146.35;100.00;61140.38;5024186;28;20056;-46
2023/10/09 09:02:53;;;;;;;7.30;3.78;;;;;;;-146.35;100.00;61140.38;5023520;28;21559;-48
2023/10/09 09:05:20;;;;;;;8.57;3.83;;;;;;;-146.35;100.00;61140.38;5025565;28;20508;-46
2023/10/09 09:07:47;;;;;;;7.47;3.78;;;;;;;-146.35;100.00;61140.38;5023925;28;20047;-48
2023/10/09 09:10:22;;;;;;;7.35;3.80;;;;;;;-146.35;100.00;61140.38;5024812;28;20037;-48
2023/10/09 09:13:00;;;;;;;8.30;3.90;;;;;;;-146.35;100.00;61140.38;5024667;28;20043;-46
2023/10/09 09:15:27;;;;;;;8.45;4.03;;;;;;;-146.35;100.00;61140.38;5023667;28;20110;-43
2023/10/09 09:18:10;;;;;;;8.63;3.67;;;;;;;-146.35;100.00;61140.38;5024012;28;20025;-47
2023/10/09 09:20:45;;;;;;;6.90;3.83;;;;;;;-146.35;100.00;61140.38;5025148;28;20067;-49
2023/10/09 09:23:12;;;;;;;7.18;3.75;;;;;;;-146.35;100.00;61140.38;5025755;28;20991;-45
2023/10/09 09:25:48;;;;;;;6.47;3.47;;;;;;;-146.35;100.00;61140.38;5058035;28;20156;-45
2023/10/09 09:28:21;;;;;;;7.65;3.83;;;;;;;-146.35;100.00;61140.38;5024027;28;20757;-46
2023/10/09 09:30:53;;;;;;;7.10;3.75;;;;;;;-146.35;100.00;61140.38;5024318;28;20049;-42
2023/10/09 09:33:39;;;;;;;7.38;3.67;;;;;;;-146.35;100.00;61140.38;5023075;28;20032;-44
2023/10/09 09:36:06;;;;;;;7.10;3.60;;;;;;;-146.35;100.00;61140.38;5022622;28;20480;-43
2023/10/09 09:38:47;;;;;;;8.65;3.65;;;;;;;-146.35;100.00;61140.38;5021588;28;20071;-43
2023/10/09 09:41:23;;;;;;;11.98;3.95;;;;;;;-146.35;100.00;61140.38;5021402;28;21370;-45
2023/10/09 09:43:52;;;;;;;8.32;4.20;;;;;;;-146.35;100.00;61140.38;5023042;28;20038;-44
2023/10/09 09:46:18;;;;;;;13.13;4.30;;;;;;;-146.35;100.00;61140.38;5017570;28;20473;-49
2023/10/09 09:48:47;;;;;;;9.70;3.83;;;;;;;-146.35;100.00;61140.38;5021113;28;20359;-48
2023/10/09 09:51:17;;;;;;;11.00;3.97;;;;;;;-146.35;100.00;61140.38;5016339;28;20041;-43
2023/10/09 09:53:47;;;;;;;9.40;4.17;;;;;;;-146.35;100.00;61140.38;5022092;28;20458;-44
2023/10/09 09:56:18;;;;;;;6.47;3.72;;;;;;;-146.35;100.00;61140.38;5022585;28;20029;-45
2023/10/09 09:58:53;;;;;;;14.75;4.00;;;;;;;-146.35;100.00;61140.38;5020891;28;20122;-45
2023/10/09 10:01:25;;;;;;;12.70;4.55;;;;;;;-146.35;100.00;61140.38;5054376;28;20778;-46
2023/10/09 10:04:11;;;;;;;11.38;3.85;;;;;;;-146.35;100.00;61140.38;5021813;28;20047;-48
2023/10/09 10:06:41;;;;;;;9.35;4.10;;;;;;;-146.35;100.00;61140.38;5021690;28;20040;-41
2023/10/09 10:09:07;;;;;;;9.20;3.80;;;;;;;-146.35;100.00;61140.38;5021772;28;20557;-44
2023/10/09 10:11:54;;;;;;;7.68;3.80;;;;;;;-146.35;100.00;61140.38;5021607;28;20025;-43
2023/10/09 10:14:28;;;;;;;10.70;4.05;;;;;;;-146.35;100.00;61140.38;5022677;28;20381;-44
2023/10/09 10:17:00;;;;;;;9.38;3.85;;;;;;;-146.35;100.00;61140.38;5022788;28;20029;-46
2023/10/09 10:20:00;;;;;;;9.63;3.97;;;;;;;-146.35;100.00;61140.38;5021717;28;20041;-46
2023/10/09 10:22:30;;;;;;;9.97;3.97;;;;;;;-146.35;100.00;61140.38;5022081;28;20388;-45
2023/10/09 10:24:57;;;;;;;9.02;3.80;;;;;;;-146.35;100.00;61140.38;5022066;28;20251;-44
2023/10/09 10:27:31;;;;;;;8.93;4.03;;;;;;;-146.35;100.00;61140.38;5019978;28;20514;-44
2023/10/09 10:30:12;;;;;;;8.15;4.30;;;;;;;-146.35;100.00;61140.38;5019063;28;20057;-43
2023/10/09 10:33:09;;;;;;;;;;;;;;;-146.35;100.00;61140.38;5019918;28;20041;-46
2023/10/09 10:35:45;;;;;;;7.15;3.88;;;;;;;-146.35;100.00;61140.38;5020275;28;20431;-44
2023/10/09 10:38:42;;;;;;;5.70;3.40;;;;;;;-146.35;100.00;61140.38;5019011;28;21239;-46
2023/10/09 10:41:12;;;;;;;11.18;3.85;;;;;;;-146.35;100.00;61140.38;5023462;28;20041;-45
2023/10/09 10:46:30;;;;;;;6.45;3.58;;;;;;;-146.35;100.00;61140.38;5026213;28;20041;-46
2023/10/09 10:48:59;;;;;;;8.18;4.28;;;;;;;-146.35;100.00;61140.38;5025741;28;20032;-46
2023/10/09 10:51:40;;;;;;;7.80;3.70;;;;;;;-146.35;100.00;61140.38;5024874;28;20055;-48
2023/10/09 10:54:45;;;;;;;6.07;3.70;;;;;;;-146.35;100.00;61140.38;5026800;28;20887;-47
2023/10/09 10:57:28;;;;;;;9.10;3.92;;;;;;;-146.35;100.00;61140.38;5025661;28;20534;-46
2023/10/09 11:00:12;;;;;;;8.98;3.90;;;;;;;-146.35;100.00;61140.38;5023875;28;20487;-45
2023/10/09 11:02:40;;;;;;;20.90;4.80;;;;;;;-146.35;100.00;61140.38;5025182;28;20512;-44
2023/10/09 11:05:25;;;;;;;18.17;4.30;;;;;;;-146.35;100.00;61140.38;5025884;28;20056;-47
2023/10/09 11:07:56;;;;;;;8.10;3.60;;;;;;;-146.35;100.00;61140.38;5025550;28;20041;-49
2023/10/09 11:10:31;;;;;;;11.95;4.45;;;;;;;-146.35;100.00;61140.38;5026027;28;20052;-47
2023/10/09 11:15:45;;;;;;;9.02;4.70;;;;;;;-146.35;100.00;61140.38;5026008;28;20055;-45
2023/10/09 11:18:35;;;;;;;8.60;4.65;;;;;;;-146.35;100.00;61140.38;5025305;28;20459;-44
2023/10/09 11:23:38;;;;;;;;;;;;;;;-146.35;100.00;61140.38;5025491;28;20098;-42
2023/10/09 11:32:17;;;;;;;13.75;5.10;;;;;;;-146.35;100.00;61140.38;5016215;28;20521;-44
2023/10/09 11:34:51;;;;;;;14.77;5.10;;;;;;;-146.35;100.00;61140.38;5023998;28;20025;-44
2023/10/09 11:39:55;;;;;;;12.20;4.70;;;;;;;-146.35;100.00;61140.38;5024668;28;20051;-43
2023/10/09 11:42:36;;;;;;;14.55;5.03;;;;;;;-146.35;100.00;61140.38;5024577;28;20481;-44
2023/10/09 11:45:21;;;;;;;16.13;5.40;;;;;;;-146.35;100.00;61140.38;5024311;28;20126;-42
2023/10/09 11:48:00;;;;;;;11.43;4.72;;;;;;;-146.35;100.00;61140.38;5025409;28;20039;-43
2023/10/09 11:53:39;;;;;;;15.07;5.07;;;;;;;-146.35;100.00;61140.38;5024947;28;20413;-45
2023/10/09 11:56:04;;;;;;;11.55;4.57;;;;;;;-146.35;100.00;61140.38;5024459;28;20215;-43
2023/10/09 11:58:30;;;;;;;10.50;4.40;;;;;;;-146.35;100.00;61140.38;5039592;28;20535;-43
2023/10/09 12:00:59;;;;;;;10.35;4.40;;;;;;;-146.35;100.00;61140.38;5038815;28;20090;-43
2023/10/09 12:03:28;;;;;;;9.48;4.30;;;;;;;-146.35;100.00;61140.38;5026046;28;20074;-43
2023/10/09 12:05:58;;;;;;;10.48;4.65;;;;;;;-146.35;100.00;61140.38;5026036;28;20412;-43
2023/10/09 12:08:26;;;;;;;10.52;4.38;;;;;;;-146.35;100.00;61140.38;5042602;28;20036;-45
2023/10/09 12:10:54;;;;;;;9.40;4.20;;;;;;;-146.35;100.00;61140.38;5028533;28;21376;-44
2023/10/09 12:13:22;;;;;;;11.02;4.30;;;;;;;-146.35;100.00;61140.38;5024009;28;20082;-43
2023/10/09 12:15:48;;;;;;;11.77;4.45;;;;;;;-146.35;100.00;61140.38;5007444;28;20045;-43
2023/10/09 12:18:18;;;;;;;10.15;4.13;;;;;;;-146.35;100.00;61140.38;5025480;28;20032;-42
2023/10/09 12:20:55;;;;;;;15.70;5.70;;;;;;;-146.35;100.00;61140.38;5026162;28;20068;-45
2023/10/09 12:23:22;;;;;;;17.48;5.70;;;;;;;-146.35;100.00;61140.38;5026300;28;20033;-43
2023/10/09 12:25:49;;;;;;;17.17;6.18;;;;;;;-146.35;100.00;61140.38;5026040;28;20028;-44
2023/10/09 12:28:15;;;;;;;18.00;6.20;;;;;;;-146.35;100.00;61140.38;5027782;28;21173;-44
2023/10/09 12:30:41;;;;;;;17.73;5.70;;;;;;;-146.35;100.00;61140.38;5025253;28;20052;-44
2023/10/09 12:33:07;;;;;;;15.85;6.05;;;;;;;-146.35;100.00;61140.38;5027737;28;20047;-46
2023/10/09 12:35:40;;;;;;;15.18;5.85;;;;;;;-146.35;100.00;61140.38;5028272;28;20025;-44
2023/10/09 12:38:10;;;;;;;16.08;5.70;;;;;;;-146.35;100.00;61140.38;5027240;28;20040;-46
2023/10/09 12:40:38;;;;;;;13.18;5.38;;;;;;;-146.35;100.00;61140.38;5058429;28;20036;-44
2023/10/09 12:43:03;;;;;;;11.38;5.10;;;;;;;-146.35;100.00;61140.38;5029482;28;20036;-48
2023/10/09 12:45:32;;;;;;;13.60;5.00;;;;;;;-146.35;100.00;61140.38;5023719;28;20374;-43
2023/10/09 12:47:59;;;;;;;12.55;4.90;;;;;;;-146.35;100.00;61140.38;5023232;28;20552;-42
2023/10/09 12:50:28;;;;;;;16.40;5.57;;;;;;;-146.35;100.00;61140.38;5037440;28;20303;-45
2023/10/09 12:52:56;;;;;;;13.80;5.32;;;;;;;-146.35;100.00;61140.38;5023263;28;20033;-45
2023/10/09 12:55:31;;;;;;;17.52;5.93;;;;;;;-146.35;100.00;61140.38;5022426;28;20036;-47
2023/10/09 12:58:00;;;;;;;13.10;5.15;;;;;;;-146.35;100.00;61140.38;5022173;28;20150;-48
2023/10/09 13:00:26;;;;;;;13.23;5.65;;;;;;;-146.35;100.00;61140.38;5021556;28;20061;-46
2023/10/09 13:02:51;;;;;;;16.00;5.63;;;;;;;-146.35;100.00;61140.38;5023360;28;20037;-47
2023/10/09 13:05:26;;;;;;;13.15;5.03;;;;;;;-146.35;100.00;61140.38;5022517;28;20036;-47
2023/10/09 13:07:53;;;;;;;16.23;5.65;;;;;;;-146.35;100.00;61140.38;5023921;28;20395;-46
2023/10/09 13:10:19;;;;;;;12.77;4.90;;;;;;;-146.35;100.00;61140.38;5022723;28;20506;-47
2023/10/09 13:12:45;;;;;;;13.52;5.40;;;;;;;-146.35;100.00;61140.38;5022050;28;21098;-47
2023/10/09 13:15:11;;;;;;;16.45;5.30;;;;;;;-146.35;100.00;61140.38;5021100;28;20036;-46
2023/10/09 13:17:38;;;;;;;9.40;4.63;;;;;;;-146.35;100.00;61140.38;5021843;28;20036;-46
2023/10/09 13:20:13;;;;;;;10.23;4.70;;;;;;;-146.35;100.00;61140.38;5038216;28;20447;-50
2023/10/09 13:22:40;;;;;;;15.05;5.28;;;;;;;-146.35;100.00;61140.38;5022510;28;20111;-46
2023/10/09 13:25:14;;;;;;;14.40;5.53;;;;;;;-146.35;100.00;61140.38;5023424;28;20033;-47
2023/10/09 13:27:40;;;;;;;8.48;4.45;;;;;;;-146.35;100.00;61140.38;5018315;28;20043;-45
2023/10/09 13:30:07;;;;;;;11.13;4.53;;;;;;;-146.35;100.00;61140.38;5020674;28;20072;-45
2023/10/09 13:32:35;;;;;;;8.70;4.32;;;;;;;-146.35;100.00;61140.38;5023260;28;20092;-46
2023/10/09 13:35:03;;;;;;;11.50;5.38;;;;;;;-146.35;100.00;61140.38;5021938;28;20866;-45
2023/10/09 13:37:30;;;;;;;13.63;4.90;;;;;;;-146.35;100.00;61140.38;5022298;28;20425;-46
2023/10/09 13:39:57;;;;;;;13.90;5.10;;;;;;;-146.35;100.00;61140.38;5035248;28;20392;-45
2023/10/09 13:42:25;;;;;;;10.10;4.65;;;;;;;-146.35;100.00;61140.38;5036318;28;20032;-43
2023/10/09 13:44:53;;;;;;;10.05;4.90;;;;;;;-146.35;100.00;61140.38;5021108;28;20409;-44
2023/10/09 13:47:20;;;;;;;10.35;4.90;;;;;;;-146.35;100.00;61140.38;5019682;28;20028;-45
2023/10/09 13:49:50;;;;;;;9.05;4.45;;;;;;;-146.35;100.00;61140.38;5020615;28;20032;-46
2023/10/09 13:52:21;;;;;;;11.15;4.15;;;;;;;-146.35;100.00;61140.38;5019259;28;20052;-45
2023/10/09 13:54:50;;;;;;;10.82;4.70;;;;;;;-146.35;100.00;61140.38;5020408;28;20044;-48
2023/10/09 13:57:16;;;;;;;9.05;4.38;;;;;;;-146.35;100.00;61140.38;5035695;28;20124;-45
2023/10/09 13:59:48;;;;;;;12.52;4.90;;;;;;;-146.35;100.00;61140.38;5019542;28;20033;-47
2023/10/09 14:02:17;;;;;;;11.18;4.32;;;;;;;-146.35;100.00;61140.38;5019629;28;20028;-45
2023/10/09 14:04:43;;;;;;;9.45;4.75;;;;;;;-146.35;100.00;61140.38;5019978;28;20036;-47
2023/10/09 14:07:09;;;;;;;8.65;4.30;;;;;;;-146.35;100.00;61140.38;5021705;28;20484;-45
2023/10/09 14:09:38;;;;;;;9.80;4.38;;;;;;;-146.35;100.00;61140.38;5020898;28;20036;-43
2023/10/09 14:12:11;;;;;;;10.52;4.65;;;;;;;-146.35;100.00;61140.38;5020285;28;20041;-44
2023/10/09 14:14:38;;;;;;;9.13;4.80;;;;;;;-146.35;100.00;61140.38;5018974;28;20245;-42
2023/10/09 14:17:11;;;;;;;12.95;4.63;;;;;;;-146.35;100.00;61140.38;5025117;28;20477;-44
2023/10/09 14:19:46;;;;;;;10.43;4.70;;;;;;;-146.35;100.00;61140.38;5025784;28;20045;-44
2023/10/09 14:22:15;;;;;;;24.52;5.43;;;;;;;-146.35;100.00;61140.38;5025243;28;21524;-43